Pottersdale, Pennsylvania
Current Conditions -  °F | °C
As of 12:54 AM on Tuesday 21 Oct 2014 (Local Time) from KFIG Reporting Station
Overcast Overcast  
Wind Chill: 46°   Ceiling: 4700
Heat Index: 46°   Visibility: 10mi
Dew Point: 43°   Wind: 0mph
Humidity: 89%   Direction: NA
Pressure: 29.87"   Gusts: NA
Location:  41.17°N, 78.06°W
Report Text: KFIG 210454Z AUTO 00000KT 10SM SCT028 OVC047 08/06 A2987 RMK AO2 SLP117 T00780061 401330011
Loading
Personal Weather Stations






























Interactive Weather Map
Tropical Storm Tracking
New forecast layout! Learn more

10-Day Weather Forecast

Advertisements
Track Severe Weather on mobile